Time;durP1;ratioP1;P1;durP2;ratioP2;P2;SDS_P1;SDS_P2;PMS_P1;PMS_P2;Temp;Humidity;BMP_temperature;BMP_pressure;BME280_temperature;BME280_humidity;BME280_pressure;Samples;Min_cycle;Max_cycle;Signal;HPM_P1;HPM_P2
2023/03/23 00:00:54;;;;;;;4.13;2.53;;;11.20;99.90;;;;;;8300943;28;20279;-82
2023/03/23 00:04:55;;;;;;;2.70;1.80;;;11.30;99.90;;;;;;8308718;28;20207;-83
2023/03/23 00:08:59;;;;;;;3.13;2.10;;;11.30;99.90;;;;;;8309212;28;20224;-82
2023/03/23 00:13:02;;;;;;;2.17;1.77;;;11.30;99.90;;;;;;8308095;28;20241;-83
2023/03/23 00:17:03;;;;;;;4.03;2.10;;;11.30;99.90;;;;;;8302090;28;20201;-83
2023/03/23 00:21:04;;;;;;;4.90;2.00;;;11.30;99.90;;;;;;8303589;28;20213;-82
2023/03/23 00:25:06;;;;;;;3.03;1.80;;;11.40;99.90;;;;;;8301642;28;20217;-83
2023/03/23 00:29:21;;;;;;;2.63;1.90;;;11.40;99.90;;;;;;8307429;28;20191;-83
2023/03/23 00:33:33;;;;;;;4.53;1.90;;;11.40;99.90;;;;;;8307357;28;20182;-83
2023/03/23 00:37:35;;;;;;;4.00;1.73;;;11.40;99.90;;;;;;8310622;28;20232;-83
2023/03/23 00:41:36;;;;;;;2.53;2.03;;;11.40;99.90;;;;;;8301363;28;20194;-83
2023/03/23 00:45:37;;;;;;;4.33;2.20;;;11.30;99.90;;;;;;8306951;28;20190;-83
2023/03/23 00:49:38;;;;;;;3.53;2.00;;;11.20;99.90;;;;;;8299130;28;20291;-82
2023/03/23 00:53:40;;;;;;;3.20;1.83;;;11.10;99.90;;;;;;8299033;28;20198;-82
2023/03/23 00:57:41;;;;;;;3.37;2.03;;;11.00;99.90;;;;;;8302425;28;20191;-83
2023/03/23 01:01:42;;;;;;;3.03;2.17;;;11.00;99.90;;;;;;8312541;28;20245;-83
2023/03/23 01:05:43;;;;;;;5.17;2.13;;;11.00;99.90;;;;;;8307669;28;20243;-83
2023/03/23 01:09:44;;;;;;;3.80;2.43;;;11.00;99.90;;;;;;8284335;28;20220;-83
2023/03/23 01:13:45;;;;;;;4.93;2.40;;;11.00;99.90;;;;;;8309686;28;20203;-83
2023/03/23 01:17:46;;;;;;;5.40;2.53;;;11.00;99.90;;;;;;8302495;28;20209;-83
2023/03/23 01:21:47;;;;;;;4.30;2.73;;;11.10;99.90;;;;;;8305856;28;20246;-83
2023/03/23 01:25:49;;;;;;;3.73;2.60;;;11.10;99.90;;;;;;8301396;28;20212;-83
2023/03/23 01:29:50;;;;;;;5.47;2.70;;;11.20;99.90;;;;;;8307066;28;20271;-83
2023/03/23 01:33:52;;;;;;;5.43;2.83;;;11.20;99.90;;;;;;8307565;28;20251;-83
2023/03/23 01:37:53;;;;;;;5.90;2.80;;;11.30;99.90;;;;;;8307814;28;20197;-83
2023/03/23 01:41:54;;;;;;;3.43;2.30;;;11.30;99.90;;;;;;8304199;28;20218;-81
2023/03/23 01:45:56;;;;;;;5.10;2.50;;;11.40;99.90;;;;;;8306724;28;20583;-83
2023/03/23 01:49:56;;;;;;;4.03;2.67;;;11.40;99.90;;;;;;8308581;28;20183;-83
2023/03/23 01:54:01;;;;;;;3.40;2.30;;;11.40;99.90;;;;;;8310352;28;20193;-83
2023/03/23 01:58:03;;;;;;;3.17;2.13;;;11.50;99.90;;;;;;8307557;28;20189;-83
2023/03/23 02:02:04;;;;;;;5.47;2.20;;;11.50;99.90;;;;;;8312996;28;20408;-83
2023/03/23 02:06:05;;;;;;;3.57;2.30;;;11.50;99.90;;;;;;8312104;28;20187;-83
2023/03/23 02:10:07;;;;;;;3.67;1.63;;;11.50;99.90;;;;;;8317644;28;20217;-83
2023/03/23 02:14:08;;;;;;;3.50;2.00;;;11.50;99.90;;;;;;8320794;28;20746;-83
2023/03/23 02:18:34;;;;;;;2.40;1.73;;;11.50;99.90;;;;;;8325778;28;20214;-84
2023/03/23 02:22:43;;;;;;;6.93;2.13;;;11.40;99.90;;;;;;8327465;28;20210;-82
2023/03/23 02:27:16;;;;;;;4.50;2.00;;;11.30;99.90;;;;;;8339326;28;20182;-82
2023/03/23 02:31:43;;;;;;;1.97;1.70;;;11.30;99.90;;;;;;8307682;28;20215;-81
2023/03/23 02:36:16;;;;;;;3.37;1.87;;;11.20;99.90;;;;;;8311471;28;20225;-82
2023/03/23 02:40:41;;;;;;;4.70;2.13;;;11.20;99.90;;;;;;8303577;28;20189;-83
2023/03/23 02:44:45;;;;;;;2.97;1.90;;;11.20;99.90;;;;;;8304396;28;20256;-82
2023/03/23 02:48:50;;;;;;;2.33;1.80;;;11.10;99.90;;;;;;8308225;28;20256;-82
2023/03/23 02:52:55;;;;;;;2.80;1.70;;;11.00;99.90;;;;;;8309813;28;20186;-82
2023/03/23 02:56:57;;;;;;;2.80;1.60;;;10.90;99.90;;;;;;8305527;28;20285;-82
2023/03/23 03:00:58;;;;;;;1.67;1.53;;;10.90;99.90;;;;;;8311888;28;20188;-83
2023/03/23 03:05:03;;;;;;;2.80;1.90;;;10.80;99.90;;;;;;8299971;28;20240;-83
2023/03/23 03:09:24;;;;;;;3.60;1.67;;;10.80;99.90;;;;;;8314700;28;20194;-82
2023/03/23 03:13:51;;;;;;;2.20;1.50;;;10.80;99.90;;;;;;8301043;28;20277;-82
2023/03/23 03:18:21;;;;;;;6.17;1.50;;;10.90;99.90;;;;;;8299506;28;20220;-83
2023/03/23 03:22:23;;;;;;;2.77;1.47;;;11.00;99.90;;;;;;8304797;28;20306;-81
2023/03/23 03:26:26;;;;;;;2.17;1.40;;;11.10;99.90;;;;;;8310297;28;20230;-83
2023/03/23 03:30:31;;;;;;;2.50;1.40;;;11.20;99.90;;;;;;8312621;28;20242;-83
2023/03/23 03:34:34;;;;;;;1.77;1.60;;;11.20;99.90;;;;;;8306993;28;20276;-82
2023/03/23 03:38:46;;;;;;;2.17;1.37;;;11.20;99.90;;;;;;8314776;28;20761;-82
2023/03/23 03:42:47;;;;;;;1.93;1.30;;;11.20;99.90;;;;;;8312789;28;20427;-81
2023/03/23 03:46:48;;;;;;;1.80;1.10;;;11.20;99.90;;;;;;8299253;28;20195;-82
2023/03/23 03:50:51;;;;;;;2.10;1.43;;;11.20;99.90;;;;;;8300446;28;20272;-81
2023/03/23 03:54:53;;;;;;;1.97;1.10;;;11.20;99.90;;;;;;8307595;28;20502;-81
2023/03/23 03:58:53;;;;;;;2.50;1.40;;;11.10;99.90;;;;;;8304889;28;20193;-83
2023/03/23 04:02:54;;;;;;;2.00;1.40;;;11.10;99.90;;;;;;8306005;28;20216;-82
2023/03/23 04:06:57;;;;;;;1.70;1.30;;;11.10;99.90;;;;;;8302896;28;20190;-82
2023/03/23 04:10:58;;;;;;;3.57;1.53;;;11.10;99.90;;;;;;8306019;28;20185;-82
2023/03/23 04:15:00;;;;;;;2.77;1.30;;;11.10;99.90;;;;;;8296020;28;20204;-82
2023/03/23 04:19:01;;;;;;;2.03;1.33;;;11.10;99.90;;;;;;8304272;28;20207;-82
2023/03/23 04:23:02;;;;;;;2.67;1.20;;;11.00;99.90;;;;;;8307858;28;20240;-82
2023/03/23 04:27:03;;;;;;;3.03;1.47;;;11.10;99.90;;;;;;8310624;28;20281;-81
2023/03/23 04:31:03;;;;;;;1.87;1.30;;;11.00;99.90;;;;;;8310686;28;20205;-81
2023/03/23 04:35:06;;;;;;;2.70;1.13;;;11.00;99.90;;;;;;8306364;28;20200;-82
2023/03/23 04:39:09;;;;;;;3.33;1.37;;;11.00;99.90;;;;;;8306355;28;20285;-82
2023/03/23 04:43:12;;;;;;;2.90;1.47;;;11.00;99.90;;;;;;8301488;28;20353;-83
2023/03/23 04:47:17;;;;;;;2.80;1.23;;;11.10;99.90;;;;;;8305298;28;20190;-82
2023/03/23 04:51:18;;;;;;;2.27;1.30;;;11.10;99.90;;;;;;8307293;28;20186;-81
2023/03/23 04:55:20;;;;;;;2.07;1.80;;;11.10;99.90;;;;;;8300458;28;20212;-83
2023/03/23 04:59:21;;;;;;;1.57;1.37;;;11.10;99.90;;;;;;8310697;28;20196;-82
2023/03/23 05:03:22;;;;;;;2.00;1.40;;;11.10;99.90;;;;;;8301346;28;20502;-83
2023/03/23 05:07:23;;;;;;;1.83;1.30;;;11.10;99.90;;;;;;8308477;28;20183;-79
2023/03/23 05:11:24;;;;;;;3.37;1.77;;;11.10;99.90;;;;;;8297006;28;20261;-79
2023/03/23 05:15:25;;;;;;;3.37;1.43;;;11.10;99.90;;;;;;8306592;28;20179;-79
2023/03/23 05:19:25;;;;;;;2.40;1.50;;;11.00;99.90;;;;;;8307721;28;20204;-79
2023/03/23 05:23:26;;;;;;;2.77;1.70;;;11.00;99.90;;;;;;8311107;28;20212;-79
2023/03/23 05:27:30;;;;;;;3.60;1.80;;;10.90;99.90;;;;;;8312232;28;20229;-79
2023/03/23 05:31:31;;;;;;;2.63;1.77;;;10.90;99.90;;;;;;8316951;28;20266;-79
2023/03/23 05:35:32;;;;;;;3.20;1.80;;;10.90;99.90;;;;;;8308238;28;20218;-79
2023/03/23 05:39:34;;;;;;;3.43;1.70;;;11.10;99.90;;;;;;8309395;28;20198;-79
2023/03/23 05:43:35;;;;;;;1.97;1.50;;;11.20;99.90;;;;;;8310022;28;20268;-77
2023/03/23 05:47:36;;;;;;;2.47;1.47;;;11.40;99.90;;;;;;8315798;28;20186;-77
2023/03/23 05:51:37;;;;;;;2.90;1.80;;;11.50;99.90;;;;;;8328095;28;20260;-77
2023/03/23 05:55:37;;;;;;;4.53;2.17;;;11.60;99.90;;;;;;8319567;28;20194;-76
2023/03/23 05:59:38;;;;;;;2.00;1.50;;;11.70;99.90;;;;;;8340022;28;20194;-78
2023/03/23 06:03:39;;;;;;;2.03;1.53;;;11.90;99.90;;;;;;8352929;28;20221;-78
2023/03/23 06:07:40;;;;;;;3.10;1.73;;;12.00;99.90;;;;;;8354247;28;20218;-78
2023/03/23 06:11:41;;;;;;;2.47;1.60;;;12.20;99.90;;;;;;8355526;28;20211;-78
2023/03/23 06:15:42;;;;;;;3.33;1.80;;;12.40;99.90;;;;;;8353188;28;20199;-79
2023/03/23 06:19:45;;;;;;;2.53;2.00;;;12.50;99.90;;;;;;8338112;28;20207;-78
2023/03/23 06:23:47;;;;;;;2.63;1.43;;;12.60;99.90;;;;;;8317606;28;20214;-77
2023/03/23 06:27:48;;;;;;;2.07;1.57;;;12.70;99.90;;;;;;8316415;28;20193;-77
2023/03/23 06:31:55;;;;;;;1.83;1.30;;;12.80;99.90;;;;;;8312456;28;20178;-77
2023/03/23 06:35:57;;;;;;;2.93;1.47;;;12.90;99.90;;;;;;8305867;28;20217;-77
2023/03/23 06:39:58;;;;;;;2.83;1.80;;;13.00;99.90;;;;;;8310962;28;20183;-77
2023/03/23 06:44:00;;;;;;;5.17;1.87;;;13.20;92.10;;;;;;8304684;28;20233;-77
2023/03/23 06:48:01;;;;;;;2.90;1.80;;;13.40;76.70;;;;;;8315062;28;20182;-77
2023/03/23 06:52:03;;;;;;;3.83;1.53;;;13.60;65.00;;;;;;8308158;28;20183;-77
2023/03/23 06:56:04;;;;;;;2.73;1.73;;;13.90;60.30;;;;;;8314627;28;20232;-79
2023/03/23 07:00:07;;;;;;;3.60;1.77;;;14.20;45.60;;;;;;8318399;28;20189;-78
2023/03/23 07:04:08;;;;;;;3.17;1.53;;;14.60;23.20;;;;;;8304199;28;20206;-77
2023/03/23 07:08:09;;;;;;;2.67;1.80;;;14.90;16.70;;;;;;8311424;28;20185;-78
2023/03/23 07:12:10;;;;;;;2.83;1.70;;;15.30;11.00;;;;;;8311719;28;20273;-77
2023/03/23 07:16:11;;;;;;;3.30;1.70;;;15.50;1.00;;;;;;8304203;28;20187;-78
2023/03/23 07:20:12;;;;;;;3.03;1.63;;;15.60;1.00;;;;;;8308578;28;20293;-78
2023/03/23 07:24:13;;;;;;;2.77;1.47;;;15.60;1.00;;;;;;8305908;28;20218;-78
2023/03/23 07:28:15;;;;;;;2.47;1.50;;;15.50;1.00;;;;;;8320454;28;20179;-78
2023/03/23 07:32:16;;;;;;;3.03;1.57;;;15.40;1.00;;;;;;8299922;28;20211;-78
2023/03/23 07:36:17;;;;;;;2.00;1.50;;;15.40;1.00;;;;;;8289308;28;20237;-78
2023/03/23 07:40:18;;;;;;;2.20;1.37;;;15.50;1.00;;;;;;8309961;28;20186;-78
2023/03/23 07:44:19;;;;;;;2.73;1.47;;;15.90;1.00;;;;;;8307377;28;20206;-77
2023/03/23 07:48:20;;;;;;;2.37;1.50;;;16.10;1.00;;;;;;8310120;28;20214;-77
2023/03/23 07:52:21;;;;;;;3.63;1.90;;;16.20;1.00;;;;;;8305586;28;20187;-77
2023/03/23 07:56:22;;;;;;;5.27;1.60;;;16.40;1.00;;;;;;8310206;28;20190;-77
2023/03/23 08:00:23;;;;;;;2.57;1.50;;;16.50;1.00;;;;;;8306656;28;20290;-77
2023/03/23 08:04:24;;;;;;;2.50;1.43;;;16.70;1.00;;;;;;8311931;28;20217;-77
2023/03/23 08:08:25;;;;;;;6.40;1.73;;;16.80;1.00;;;;;;8302226;28;20179;-78
2023/03/23 08:12:27;;;;;;;2.13;1.30;;;16.90;1.00;;;;;;8304575;28;20193;-78
2023/03/23 08:16:27;;;;;;;3.63;1.77;;;16.80;1.00;;;;;;8317411;28;20255;-78
2023/03/23 08:20:28;;;;;;;3.17;1.77;;;16.80;1.00;;;;;;8308136;28;20202;-78
2023/03/23 08:24:30;;;;;;;4.13;1.50;;;16.70;1.00;;;;;;8306249;28;20215;-78
2023/03/23 08:28:31;;;;;;;2.17;1.53;;;16.90;1.00;;;;;;8307676;28;20176;-78
2023/03/23 08:32:32;;;;;;;4.83;1.70;;;17.20;1.00;;;;;;8305458;28;20183;-78
2023/03/23 08:36:34;;;;;;;3.50;1.47;;;17.40;1.00;;;;;;8301657;28;20202;-78
2023/03/23 08:40:34;;;;;;;1.73;1.20;;;17.40;1.00;;;;;;8301259;28;20508;-78
2023/03/23 08:44:36;;;;;;;2.27;1.20;;;17.10;1.00;;;;;;8306474;28;20213;-77
2023/03/23 08:48:38;;;;;;;3.07;1.70;;;16.90;1.00;;;;;;8300942;28;20179;-78
2023/03/23 08:52:39;;;;;;;2.03;1.60;;;16.90;1.00;;;;;;8312386;28;20260;-78
2023/03/23 08:56:40;;;;;;;3.87;1.60;;;17.00;1.00;;;;;;8306855;28;20186;-78
2023/03/23 09:00:41;;;;;;;2.33;1.60;;;17.20;1.00;;;;;;8306515;28;20194;-78
2023/03/23 09:04:42;;;;;;;3.17;2.03;;;17.20;1.00;;;;;;8302480;28;20230;-78
2023/03/23 09:08:44;;;;;;;2.87;1.77;;;17.40;1.00;;;;;;8310072;28;20190;-78
2023/03/23 09:12:46;;;;;;;2.97;1.60;;;17.50;1.00;;;;;;8308743;28;20190;-78
2023/03/23 09:16:47;;;;;;;3.57;2.17;;;17.70;1.00;;;;;;8304322;28;20213;-78
2023/03/23 09:20:50;;;;;;;2.83;1.33;;;18.00;1.00;;;;;;8313165;28;20198;-78
2023/03/23 09:24:51;;;;;;;2.40;1.60;;;18.40;1.00;;;;;;8310955;28;20214;-78
2023/03/23 09:28:52;;;;;;;1.73;1.13;;;18.70;1.00;;;;;;8321037;28;20178;-78
2023/03/23 09:32:54;;;;;;;1.27;1.10;;;18.70;1.00;;;;;;8332081;28;20232;-78
2023/03/23 09:36:55;;;;;;;1.63;1.13;;;18.80;1.00;;;;;;8340342;28;20221;-78
2023/03/23 09:41:24;;;;;;;2.10;1.37;;;18.70;1.00;;;;;;8341273;28;20186;-78
2023/03/23 09:45:48;;;;;;;1.83;1.40;;;18.60;1.00;;;;;;8345335;28;20210;-78
2023/03/23 09:50:02;;;;;;;2.53;1.50;;;17.90;1.00;;;;;;8340367;28;20222;-79
2023/03/23 09:54:11;;;;;;;2.13;1.50;;;18.10;1.00;;;;;;8311248;28;20257;-78
2023/03/23 09:58:44;;;;;;;2.03;1.50;;;18.20;1.00;;;;;;8298966;28;20241;-78
2023/03/23 10:03:14;;;;;;;3.87;1.60;;;17.90;1.00;;;;;;8297338;28;20227;-78
2023/03/23 10:07:19;;;;;;;1.97;1.40;;;17.80;1.00;;;;;;8302137;28;20215;-78
2023/03/23 10:12:01;;;;;;;1.50;1.17;;;17.70;1.00;;;;;;8303129;28;20206;-78
2023/03/23 10:16:09;;;;;;;2.70;1.60;;;17.70;1.00;;;;;;8224700;28;20387;-78
2023/03/23 10:20:36;;;;;;;3.00;1.70;;;17.90;1.00;;;;;;8324513;28;20237;-78
2023/03/23 10:24:57;;;;;;;2.50;1.57;;;18.20;1.00;;;;;;8302062;28;20246;-79
2023/03/23 10:29:10;;;;;;;5.53;1.47;;;18.40;1.00;;;;;;8304940;28;20187;-78
2023/03/23 10:33:30;;;;;;;1.67;1.10;;;18.30;1.00;;;;;;8311478;28;20214;-79
2023/03/23 10:37:36;;;;;;;2.20;1.43;;;18.20;1.00;;;;;;8304719;28;20211;-79
2023/03/23 10:41:37;;;;;;;3.20;1.63;;;17.60;1.00;;;;;;8307265;28;20221;-79
2023/03/23 10:45:40;;;;;;;1.87;1.50;;;17.10;1.00;;;;;;8302951;28;20211;-79
2023/03/23 10:49:51;;;;;;;3.90;1.43;;;16.80;1.00;;;;;;8323743;28;20225;-79
2023/03/23 10:53:58;;;;;;;2.80;1.57;;;16.90;1.00;;;;;;8324173;28;20194;-79
2023/03/23 10:58:09;;;;;;;2.80;1.60;;;16.90;1.00;;;;;;8308214;28;20191;-78
2023/03/23 11:02:16;;;;;;;2.47;1.53;;;16.80;1.00;;;;;;8321816;28;20681;-78
2023/03/23 11:06:30;;;;;;;3.30;1.77;;;16.90;1.00;;;;;;8305249;28;20194;-78
2023/03/23 11:10:41;;;;;;;2.80;1.57;;;17.20;1.00;;;;;;8310697;28;20186;-78
2023/03/23 11:14:44;;;;;;;1.97;1.47;;;17.50;1.00;;;;;;8302732;28;20195;-79
2023/03/23 11:18:45;;;;;;;2.10;1.50;;;17.80;1.00;;;;;;8301837;28;20233;-79
2023/03/23 11:22:47;;;;;;;2.23;1.30;;;18.20;1.00;;;;;;8301705;28;20641;-78
2023/03/23 11:26:48;;;;;;;1.90;1.27;;;18.30;1.00;;;;;;8303513;28;20187;-79
2023/03/23 11:30:54;;;;;;;2.67;1.43;;;18.50;1.00;;;;;;8307086;28;20202;-78
2023/03/23 11:35:17;;;;;;;1.90;1.07;;;18.00;1.00;;;;;;8306435;28;20199;-78
2023/03/23 11:39:27;;;;;;;1.13;1.00;;;17.80;1.00;;;;;;8306005;28;20187;-78
2023/03/23 11:43:28;;;;;;;1.37;0.90;;;18.30;1.00;;;;;;8306763;28;20207;-79
2023/03/23 11:47:39;;;;;;;1.00;0.77;;;18.20;1.00;;;;;;8312685;28;20191;-79
2023/03/23 11:51:48;;;;;;;1.90;1.00;;;18.60;1.00;;;;;;8306948;28;20198;-78
2023/03/23 11:55:50;;;;;;;1.20;0.80;;;18.40;1.00;;;;;;8303068;28;20332;-78
2023/03/23 11:59:52;;;;;;;2.07;1.00;;;18.20;1.00;;;;;;8308558;28;20191;-78
2023/03/23 12:04:26;;;;;;;1.27;0.77;;;18.10;1.00;;;;;;8308461;28;20543;-78
2023/03/23 12:08:40;;;;;;;1.90;1.10;;;18.20;1.00;;;;;;8311626;28;20194;-78
2023/03/23 12:12:46;;;;;;;1.90;1.00;;;18.30;1.00;;;;;;8308444;28;20202;-78
2023/03/23 12:17:02;;;;;;;2.20;0.80;;;18.70;1.00;;;;;;8302501;28;20565;-78
2023/03/23 12:21:24;;;;;;;1.57;1.00;;;19.10;1.00;;;;;;8306072;28;20513;-78
2023/03/23 12:26:10;;;;;;;1.50;1.03;;;19.20;1.00;;;;;;8304513;28;20269;-79
2023/03/23 12:30:37;;;;;;;1.63;1.20;;;19.20;1.00;;;;;;8300158;28;20206;-79
2023/03/23 12:35:06;;;;;;;3.17;1.37;;;19.20;1.00;;;;;;8309230;28;20234;-79
2023/03/23 12:39:45;;;;;;;2.00;1.20;;;19.50;1.00;;;;;;8299437;28;20278;-79
2023/03/23 12:43:59;;;;;;;2.57;1.80;;;19.70;1.00;;;;;;8305206;28;20281;-80
2023/03/23 12:48:06;;;;;;;3.43;1.70;;;19.50;1.00;;;;;;8299063;28;20232;-78
2023/03/23 12:52:21;;;;;;;3.00;1.90;;;19.30;1.00;;;;;;8306605;28;20260;-79
2023/03/23 12:56:34;;;;;;;3.20;2.07;;;19.30;1.00;;;;;;8311285;28;20210;-79
2023/03/23 13:00:57;;;;;;;3.17;1.83;;;19.10;1.00;;;;;;8320111;28;20184;-79
2023/03/23 13:05:14;;;;;;;4.17;2.00;;;18.70;1.00;;;;;;8325644;28;20202;-78
2023/03/23 13:09:43;;;;;;;2.07;1.67;;;18.80;1.00;;;;;;8340487;28;20179;-79
2023/03/23 13:13:46;;;;;;;3.00;1.90;;;18.60;1.00;;;;;;8344709;28;20171;-80
2023/03/23 13:17:59;;;;;;;2.27;1.93;;;18.20;1.00;;;;;;8341686;28;20196;-79
2023/03/23 13:22:09;;;;;;;4.17;2.07;;;17.50;1.00;;;;;;8351035;28;20217;-80
2023/03/23 13:26:21;;;;;;;3.77;1.60;;;17.50;1.00;;;;;;8332565;28;20209;-79
2023/03/23 13:30:23;;;;;;;2.87;1.77;;;17.60;1.00;;;;;;8306743;28;20194;-79
2023/03/23 13:34:30;;;;;;;2.33;1.67;;;17.60;1.00;;;;;;8308574;28;20217;-79
2023/03/23 13:38:31;;;;;;;3.77;1.60;;;17.50;1.00;;;;;;8302641;28;20179;-78
2023/03/23 13:42:35;;;;;;;2.10;1.23;;;17.40;1.00;;;;;;8307347;28;20210;-81
2023/03/23 13:46:36;;;;;;;1.60;1.20;;;17.30;1.90;;;;;;8313632;28;20193;-78
2023/03/23 13:50:48;;;;;;;3.60;1.57;;;17.50;2.20;;;;;;8315668;28;20183;-79
2023/03/23 13:54:52;;;;;;;2.40;1.50;;;17.60;1.00;;;;;;8304047;28;20277;-79
2023/03/23 13:59:06;;;;;;;3.07;1.60;;;17.50;3.60;;;;;;8309314;28;20191;-78
2023/03/23 14:03:09;;;;;;;3.20;1.70;;;17.50;9.10;;;;;;8302649;28;20206;-78
2023/03/23 14:07:12;;;;;;;3.77;2.00;;;17.20;13.90;;;;;;8306229;28;20213;-77
2023/03/23 14:11:27;;;;;;;2.77;1.50;;;17.10;42.30;;;;;;8311102;28;20183;-77
2023/03/23 14:15:45;;;;;;;3.27;1.30;;;17.00;66.30;;;;;;8304447;28;20289;-77
2023/03/23 14:19:52;;;;;;;2.07;1.40;;;17.20;93.90;;;;;;8306478;28;20217;-77
2023/03/23 14:23:56;;;;;;;2.93;1.67;;;17.40;93.40;;;;;;8302425;28;20219;-78
2023/03/23 14:27:57;;;;;;;3.53;1.50;;;17.40;77.20;;;;;;8304217;28;20273;-78
2023/03/23 14:31:59;;;;;;;1.73;1.30;;;17.20;94.50;;;;;;8311808;28;20192;-78
2023/03/23 14:36:00;;;;;;;2.07;1.40;;;17.00;90.40;;;;;;8310302;28;20265;-78
2023/03/23 14:40:05;;;;;;;2.60;1.47;;;16.70;99.90;;;;;;8300025;28;20187;-78
2023/03/23 14:44:12;;;;;;;1.93;1.37;;;16.50;99.90;;;;;;8313594;28;20225;-78
2023/03/23 14:48:16;;;;;;;3.73;1.43;;;16.50;99.90;;;;;;8314062;28;20257;-77
2023/03/23 14:52:17;;;;;;;2.23;1.60;;;16.70;99.90;;;;;;8305102;28;20228;-77
2023/03/23 14:56:22;;;;;;;1.53;1.37;;;16.90;99.90;;;;;;8310060;28;20206;-77
2023/03/23 15:00:32;;;;;;;2.90;1.80;;;16.80;99.90;;;;;;8312249;28;20183;-78
2023/03/23 15:04:32;;;;;;;3.13;2.10;;;16.60;99.90;;;;;;8311025;28;20240;-78
2023/03/23 15:08:35;;;;;;;4.10;1.70;;;16.60;99.90;;;;;;8306168;28;20271;-77
2023/03/23 15:12:35;;;;;;;3.67;1.87;;;16.60;99.90;;;;;;8297622;28;20191;-77
2023/03/23 15:16:41;;;;;;;3.10;1.80;;;16.80;99.90;;;;;;8313895;28;20211;-77
2023/03/23 15:20:49;;;;;;;3.30;1.97;;;16.90;99.90;;;;;;8311352;28;20210;-77
2023/03/23 15:24:52;;;;;;;3.73;2.20;;;16.90;98.50;;;;;;8303792;28;20272;-77
2023/03/23 15:29:08;;;;;;;3.30;1.70;;;16.90;99.90;;;;;;8310020;28;20199;-78
2023/03/23 15:33:11;;;;;;;2.70;1.80;;;16.90;99.30;;;;;;8303635;28;20190;-77
2023/03/23 15:37:25;;;;;;;2.40;1.80;;;16.90;99.90;;;;;;8319414;28;20206;-77
2023/03/23 15:41:34;;;;;;;7.27;2.13;;;16.90;98.00;;;;;;8310422;28;20186;-78
2023/03/23 15:45:35;;;;;;;3.00;2.20;;;16.80;80.90;;;;;;8308641;28;20218;-79
2023/03/23 15:49:36;;;;;;;4.43;2.10;;;16.60;95.50;;;;;;8310391;28;20282;-79
2023/03/23 15:53:37;;;;;;;5.13;2.60;;;16.30;99.90;;;;;;8310627;28;20191;-79
2023/03/23 15:57:38;;;;;;;4.60;2.30;;;16.00;99.90;;;;;;8314540;28;20179;-77
2023/03/23 16:01:41;;;;;;;3.77;2.33;;;15.90;99.90;;;;;;8300417;28;20231;-78
2023/03/23 16:05:42;;;;;;;3.73;2.20;;;15.70;99.90;;;;;;8308358;28;20214;-78
2023/03/23 16:09:44;;;;;;;3.00;2.03;;;15.50;99.90;;;;;;8303658;28;20195;-78
2023/03/23 16:13:45;;;;;;;2.40;1.77;;;15.50;99.90;;;;;;8312269;28;20194;-78
2023/03/23 16:17:46;;;;;;;2.80;2.07;;;15.40;99.90;;;;;;8322434;28;20198;-78
2023/03/23 16:21:47;;;;;;;2.70;2.00;;;15.30;99.90;;;;;;8302944;28;20191;-76
2023/03/23 16:25:48;;;;;;;3.40;2.00;;;15.20;99.90;;;;;;8308984;28;20214;-77
2023/03/23 16:29:49;;;;;;;3.33;1.90;;;15.10;99.90;;;;;;8304102;28;20205;-79
2023/03/23 16:33:50;;;;;;;3.30;1.90;;;15.00;99.90;;;;;;8302361;28;20266;-78
2023/03/23 16:37:53;;;;;;;2.37;1.90;;;14.90;99.90;;;;;;8316431;28;20183;-77
2023/03/23 16:41:54;;;;;;;2.90;2.20;;;14.80;99.90;;;;;;8315473;28;20191;-78
2023/03/23 16:45:56;;;;;;;3.27;2.00;;;14.70;99.90;;;;;;8329571;28;20207;-77
2023/03/23 16:49:57;;;;;;;3.03;2.17;;;14.60;99.90;;;;;;8340188;28;20247;-78
2023/03/23 16:53:57;;;;;;;4.10;2.20;;;14.60;99.90;;;;;;8345638;28;20176;-78
2023/03/23 16:57:59;;;;;;;4.33;2.10;;;14.50;99.90;;;;;;8349240;28;20175;-78
2023/03/23 17:02:02;;;;;;;3.23;2.30;;;14.40;99.90;;;;;;8347048;28;20185;-78
2023/03/23 17:06:03;;;;;;;3.90;2.77;;;14.30;99.90;;;;;;8349409;28;20167;-78
2023/03/23 17:10:06;;;;;;;6.60;3.30;;;14.30;99.90;;;;;;8327011;28;20470;-78
2023/03/23 17:14:07;;;;;;;4.57;3.07;;;14.20;99.90;;;;;;8299754;28;20183;-77
2023/03/23 17:18:08;;;;;;;4.70;3.20;;;14.10;99.90;;;;;;8316809;28;20198;-77
2023/03/23 17:22:08;;;;;;;4.03;2.73;;;14.10;99.90;;;;;;8296357;28;20179;-78
2023/03/23 17:26:09;;;;;;;5.67;3.00;;;14.10;1.00;;;;;;8308302;28;20209;-77
2023/03/23 17:30:11;;;;;;;3.73;2.70;;;14.10;99.90;;;;;;8308279;28;20229;-77
2023/03/23 17:34:12;;;;;;;4.40;2.80;;;14.10;99.90;;;;;;8303467;28;20218;-77
2023/03/23 17:38:12;;;;;;;3.90;2.50;;;14.10;99.90;;;;;;8300479;28;20218;-83
2023/03/23 17:42:14;;;;;;;4.33;3.13;;;14.00;99.90;;;;;;8306205;28;20281;-83
2023/03/23 17:46:15;;;;;;;4.57;2.80;;;14.00;99.90;;;;;;8310153;28;20194;-83
2023/03/23 17:50:16;;;;;;;5.27;3.40;;;14.00;99.90;;;;;;8303061;28;20293;-83
2023/03/23 17:54:17;;;;;;;4.63;3.00;;;13.90;99.90;;;;;;8309236;28;20199;-82
2023/03/23 17:58:18;;;;;;;4.60;3.00;;;13.90;99.90;;;;;;8308226;28;20321;-83
2023/03/23 18:02:19;;;;;;;5.57;2.80;;;13.80;1.00;;;;;;8288933;28;20194;-83
2023/03/23 18:06:20;;;;;;;3.40;2.70;;;13.80;1.00;;;;;;8301756;28;20187;-84
2023/03/23 18:10:20;;;;;;;3.43;2.60;;;13.80;1.00;;;;;;8308794;28;20189;-83
2023/03/23 18:14:22;;;;;;;4.30;2.67;;;13.70;1.00;;;;;;8301635;28;20201;-84
2023/03/23 18:18:24;;;;;;;3.37;2.30;;;13.70;1.00;;;;;;8306840;28;20207;-83
2023/03/23 18:22:25;;;;;;;5.40;2.37;;;13.70;1.00;;;;;;8306219;28;20211;-83
2023/03/23 18:26:27;;;;;;;3.97;2.50;;;13.60;1.00;;;;;;8306814;28;20681;-83
2023/03/23 18:30:28;;;;;;;3.83;2.67;;;13.60;1.00;;;;;;8305556;28;21494;-83
2023/03/23 18:34:30;;;;;;;3.87;2.70;;;13.50;1.00;;;;;;8304054;28;20219;-82
2023/03/23 18:38:31;;;;;;;3.53;2.50;;;13.50;1.00;;;;;;8308493;28;20191;-83
2023/03/23 18:42:32;;;;;;;5.83;2.67;;;13.50;1.00;;;;;;8313042;28;20207;-82
2023/03/23 18:46:36;;;;;;;3.60;2.33;;;13.40;1.00;;;;;;8301273;28;20195;-83
2023/03/23 18:50:36;;;;;;;3.63;2.50;;;13.40;1.00;;;;;;8309586;28;20171;-82
2023/03/23 18:54:39;;;;;;;4.80;2.40;;;13.30;1.00;;;;;;8309856;28;20191;-83
2023/03/23 18:58:40;;;;;;;4.80;3.00;;;13.20;1.00;;;;;;8308065;28;20183;-84
2023/03/23 19:02:41;;;;;;;5.07;3.70;;;13.10;1.00;;;;;;8314136;28;20217;-82
2023/03/23 19:06:42;;;;;;;6.07;3.30;;;13.00;1.00;;;;;;8305752;28;20194;-83
2023/03/23 19:10:42;;;;;;;5.87;3.27;;;12.80;1.00;;;;;;8312023;28;20190;-83
2023/03/23 19:14:43;;;;;;;6.03;3.83;;;12.60;1.00;;;;;;8312617;28;20190;-82
2023/03/23 19:18:44;;;;;;;5.40;3.87;;;12.30;55.20;;;;;;8311248;28;20206;-83
2023/03/23 19:22:46;;;;;;;5.63;4.00;;;12.20;96.40;;;;;;8315354;28;20217;-82
2023/03/23 19:26:47;;;;;;;6.67;4.07;;;12.00;99.90;;;;;;8302686;28;20198;-82
2023/03/23 19:30:54;;;;;;;6.30;3.70;;;11.90;99.90;;;;;;8310448;28;20219;-83
2023/03/23 19:34:55;;;;;;;6.17;4.13;;;11.80;99.90;;;;;;8312721;28;20217;-83
2023/03/23 19:38:56;;;;;;;7.37;3.90;;;11.60;99.90;;;;;;8303124;28;20183;-83
2023/03/23 19:42:57;;;;;;;4.70;3.67;;;11.50;99.90;;;;;;8305664;28;20207;-83
2023/03/23 19:46:58;;;;;;;5.33;4.07;;;11.50;99.90;;;;;;8322840;28;20178;-83
2023/03/23 19:50:59;;;;;;;7.60;3.83;;;11.40;99.90;;;;;;8308802;28;20190;-83
2023/03/23 19:55:00;;;;;;;4.40;3.53;;;11.30;99.90;;;;;;8313021;28;20192;-83
2023/03/23 19:59:01;;;;;;;5.00;3.00;;;11.30;99.90;;;;;;8310261;28;20193;-82
2023/03/23 20:03:02;;;;;;;3.10;2.30;;;11.40;99.90;;;;;;8306502;28;20206;-84
2023/03/23 20:07:04;;;;;;;3.37;2.07;;;11.50;35.50;;;;;;8314688;28;20200;-83
2023/03/23 20:11:11;;;;;;;4.23;1.60;;;11.50;1.00;;;;;;8305821;28;20185;-82
2023/03/23 20:15:12;;;;;;;2.10;1.40;;;11.60;1.00;;;;;;8306801;28;20190;-83
2023/03/23 20:19:14;;;;;;;2.73;1.47;;;11.60;1.00;;;;;;8313287;28;20201;-83
2023/03/23 20:23:14;;;;;;;2.30;1.30;;;11.60;1.00;;;;;;8318002;28;20231;-83
2023/03/23 20:27:16;;;;;;;1.70;1.10;;;11.50;1.00;;;;;;8319245;28;20197;-84
2023/03/23 20:31:21;;;;;;;1.47;0.93;;;11.50;1.00;;;;;;8311383;28;20229;-83
2023/03/23 20:35:21;;;;;;;2.17;1.17;;;11.40;1.00;;;;;;8321596;28;20198;-83
2023/03/23 20:39:24;;;;;;;1.83;0.83;;;11.30;1.00;;;;;;8333261;28;20450;-85
2023/03/23 20:43:28;;;;;;;2.20;0.60;;;11.20;1.00;;;;;;8328129;28;20227;-84
2023/03/23 20:47:30;;;;;;;1.47;0.80;;;11.10;1.00;;;;;;8321190;28;20191;-82
2023/03/23 20:51:32;;;;;;;1.13;0.87;;;10.90;1.00;;;;;;8309598;28;20195;-83
2023/03/23 20:55:33;;;;;;;1.23;0.90;;;10.80;34.00;;;;;;8307073;28;20247;-82
2023/03/23 20:59:34;;;;;;;1.77;1.00;;;10.70;99.90;;;;;;8308406;28;20196;-84
2023/03/23 21:03:38;;;;;;;2.17;1.30;;;10.60;99.90;;;;;;8306986;28;20219;-83
2023/03/23 21:07:39;;;;;;;2.27;1.37;;;10.40;99.90;;;;;;8306542;28;20180;-82
2023/03/23 21:11:40;;;;;;;2.57;1.70;;;10.30;99.90;;;;;;8309171;28;20186;-83
2023/03/23 21:15:42;;;;;;;2.60;1.67;;;10.20;99.90;;;;;;8310942;28;20188;-82
2023/03/23 21:19:42;;;;;;;3.03;1.77;;;10.10;99.90;;;;;;8301598;28;20225;-83